createdAt,value
2018-03-30T00:00:45.295Z,76.00
2018-03-30T00:03:12.711Z,75.92
2018-03-30T00:05:40.211Z,75.98
2018-03-30T00:08:07.662Z,76.12
2018-03-30T00:10:40.846Z,76.14
2018-03-30T00:13:08.363Z,76.32
2018-03-30T00:15:35.817Z,76.32
2018-03-30T00:18:03.277Z,76.27
2018-03-30T00:20:30.733Z,76.05
2018-03-30T00:22:58.248Z,76.16
2018-03-30T00:25:25.752Z,76.48
2018-03-30T00:27:53.229Z,76.81
2018-03-30T00:30:20.737Z,77.17
2018-03-30T00:32:48.220Z,77.21
2018-03-30T00:35:15.745Z,77.16
2018-03-30T00:37:43.197Z,77.11
2018-03-30T00:40:10.643Z,77.06
2018-03-30T00:42:38.207Z,77.15
2018-03-30T00:45:05.667Z,77.33
2018-03-30T00:47:33.243Z,77.41
2018-03-30T00:50:00.689Z,77.69
2018-03-30T00:52:28.140Z,77.76
2018-03-30T00:54:56.339Z,78.01
2018-03-30T00:57:23.791Z,78.06
2018-03-30T00:59:51.347Z,78.01
2018-03-30T01:02:18.788Z,77.96
2018-03-30T01:04:46.307Z,77.66
2018-03-30T01:07:13.806Z,77.71
2018-03-30T01:09:41.282Z,77.73
2018-03-30T01:12:08.895Z,77.87
2018-03-30T01:14:36.355Z,77.85
2018-03-30T01:17:03.835Z,77.90
2018-03-30T01:19:31.781Z,77.90
2018-03-30T01:21:59.203Z,77.84
2018-03-30T01:24:26.683Z,78.10
2018-03-30T01:26:55.037Z,77.95
2018-03-30T01:29:22.471Z,77.91
2018-03-30T01:31:49.932Z,78.14
2018-03-30T01:34:18.392Z,78.09
2018-03-30T01:36:45.944Z,78.33
2018-03-30T01:39:13.390Z,78.46
2018-03-30T01:41:40.851Z,78.36
2018-03-30T01:44:08.323Z,78.71
2018-03-30T01:46:36.582Z,79.22
2018-03-30T01:49:04.101Z,78.86
2018-03-30T01:51:31.556Z,78.85
2018-03-30T01:53:59.019Z,78.82
2018-03-30T01:56:26.477Z,78.92
2018-03-30T01:58:53.963Z,78.81
2018-03-30T02:01:21.405Z,78.73
2018-03-30T02:03:48.848Z,78.92
2018-03-30T02:06:16.383Z,78.94
2018-03-30T02:08:43.896Z,78.83
2018-03-30T02:11:11.357Z,78.74
2018-03-30T02:13:38.838Z,78.96
2018-03-30T02:16:06.307Z,79.02
2018-03-30T02:18:33.801Z,78.86
2018-03-30T02:21:01.263Z,78.78
2018-03-30T02:26:45.136Z,78.70
2018-03-30T02:29:12.584Z,78.59
2018-03-30T02:31:40.076Z,78.79
2018-03-30T02:34:07.539Z,78.85
2018-03-30T02:36:34.960Z,79.08
2018-03-30T02:39:02.382Z,78.93
2018-03-30T02:41:30.547Z,79.17
2018-03-30T02:43:58.227Z,78.97
2018-03-30T02:46:25.664Z,79.08
2018-03-30T02:48:53.122Z,79.04
2018-03-30T02:51:20.615Z,78.93
2018-03-30T02:53:48.079Z,78.70
2018-03-30T02:56:15.560Z,78.62
2018-03-30T02:58:42.997Z,78.88
2018-03-30T03:01:10.455Z,78.99
2018-03-30T03:03:37.945Z,79.02
2018-03-30T03:06:05.470Z,79.30
2018-03-30T03:08:33.021Z,79.37
2018-03-30T03:11:00.508Z,79.48
2018-03-30T03:13:28.032Z,79.37
2018-03-30T03:15:55.494Z,79.43
2018-03-30T03:18:23.024Z,79.52
2018-03-30T03:20:50.528Z,79.69
2018-03-30T03:23:17.997Z,79.82
2018-03-30T03:25:45.494Z,79.63
2018-03-30T03:28:13.014Z,79.37
2018-03-30T03:30:40.589Z,79.55
2018-03-30T03:33:08.140Z,79.72
2018-03-30T03:35:35.635Z,79.64
2018-03-30T03:38:03.092Z,79.61
2018-03-30T03:40:30.594Z,79.46
2018-03-30T03:42:58.479Z,79.42
2018-03-30T03:45:25.979Z,79.48
2018-03-30T03:47:53.430Z,79.51
2018-03-30T03:50:20.926Z,79.38
2018-03-30T03:52:48.363Z,79.37
2018-03-30T03:55:16.452Z,79.07
2018-03-30T03:57:43.921Z,79.01
2018-03-30T04:00:11.399Z,78.74
2018-03-30T04:02:39.137Z,79.12
2018-03-30T04:05:06.590Z,79.10
2018-03-30T04:07:34.087Z,79.19
2018-03-30T04:10:01.590Z,78.82
2018-03-30T04:12:29.906Z,79.04
2018-03-30T04:14:57.408Z,79.01
2018-03-30T04:17:24.945Z,78.96
2018-03-30T04:19:52.476Z,78.88
2018-03-30T04:22:25.017Z,78.83
2018-03-30T04:24:52.535Z,78.79
2018-03-30T04:27:30.697Z,78.70
2018-03-30T04:29:58.234Z,78.75
2018-03-30T04:32:25.910Z,78.57
2018-03-30T04:34:53.355Z,78.50
2018-03-30T04:37:20.818Z,78.18
2018-03-30T04:39:48.707Z,78.54
2018-03-30T04:42:16.166Z,78.73
2018-03-30T04:44:43.624Z,78.47
2018-03-30T04:47:11.096Z,78.06
2018-03-30T04:49:38.603Z,77.79
2018-03-30T04:52:06.100Z,77.53
2018-03-30T04:54:35.404Z,77.45
2018-03-30T04:57:02.863Z,77.00
2018-03-30T04:59:30.881Z,76.31
2018-03-30T05:01:58.355Z,76.09
2018-03-30T05:04:26.034Z,75.63
2018-03-30T05:06:53.515Z,75.79
2018-03-30T05:09:22.009Z,75.91
2018-03-30T05:11:49.441Z,75.43
2018-03-30T05:14:16.954Z,75.47
2018-03-30T05:16:44.446Z,75.63
2018-03-30T05:19:11.911Z,75.58
2018-03-30T05:21:39.397Z,75.77
2018-03-30T05:24:07.174Z,75.13
2018-03-30T05:26:34.681Z,75.06
2018-03-30T05:29:02.165Z,74.94
2018-03-30T05:31:29.673Z,74.89
2018-03-30T05:33:57.151Z,74.91
2018-03-30T05:36:24.607Z,75.05
2018-03-30T05:38:52.177Z,74.89
2018-03-30T05:41:19.653Z,74.85
2018-03-30T05:43:47.688Z,74.60
2018-03-30T05:46:15.813Z,74.87
2018-03-30T05:48:43.957Z,75.01
2018-03-30T05:51:12.655Z,75.09
2018-03-30T05:53:41.103Z,74.76
2018-03-30T05:56:09.617Z,74.69
2018-03-30T05:58:37.169Z,74.34
2018-03-30T06:01:04.719Z,74.07
2018-03-30T06:03:32.228Z,74.14
2018-03-30T06:06:00.007Z,74.25
2018-03-30T06:08:27.515Z,74.24
2018-03-30T06:10:54.985Z,73.91
2018-03-30T06:13:22.584Z,74.04
2018-03-30T06:15:50.113Z,74.28
2018-03-30T06:18:17.656Z,74.47
2018-03-30T06:20:45.182Z,74.24
2018-03-30T06:23:13.196Z,74.03
2018-03-30T06:25:40.693Z,73.91
2018-03-30T06:28:08.315Z,73.97
2018-03-30T06:30:36.433Z,73.63
2018-03-30T06:33:04.447Z,73.71
2018-03-30T06:35:32.027Z,73.76
2018-03-30T06:37:59.633Z,73.90
2018-03-30T06:40:28.070Z,72.95
2018-03-30T06:42:55.525Z,72.88
2018-03-30T06:45:23.472Z,72.69
2018-03-30T06:47:50.921Z,72.12
2018-03-30T06:50:18.355Z,72.09
2018-03-30T06:52:45.815Z,71.72
2018-03-30T06:55:14.906Z,72.06
2018-03-30T06:57:42.399Z,71.79
2018-03-30T07:00:09.887Z,71.67
2018-03-30T07:08:32.199Z,71.37
2018-03-30T07:10:59.691Z,71.53
2018-03-30T07:13:27.211Z,71.21
2018-03-30T07:15:54.769Z,71.10
2018-03-30T07:18:22.567Z,71.21
2018-03-30T07:20:50.210Z,71.19
2018-03-30T07:23:19.555Z,70.65
2018-03-30T07:25:49.491Z,70.36
2018-03-30T07:28:17.679Z,70.21
2018-03-30T07:30:48.481Z,69.71
2018-03-30T07:33:16.817Z,69.75
2018-03-30T07:35:45.520Z,69.89
2018-03-30T07:38:13.186Z,69.51
2018-03-30T07:40:40.967Z,69.34
2018-03-30T07:43:09.457Z,68.77
2018-03-30T07:45:37.844Z,68.50
2018-03-30T07:48:06.145Z,68.44
2018-03-30T07:50:39.289Z,67.97
2018-03-30T07:56:00.417Z,66.83
2018-03-30T07:58:28.169Z,67.16
2018-03-30T08:00:59.189Z,66.99
2018-03-30T08:10:45.344Z,65.57
2018-03-30T08:13:13.418Z,65.38
2018-03-30T08:15:42.184Z,64.68
2018-03-30T08:18:09.999Z,64.30
2018-03-30T08:20:37.519Z,65.18
2018-03-30T08:23:10.093Z,65.04
2018-03-30T08:25:38.613Z,64.90
2018-03-30T08:28:06.647Z,64.14
2018-03-30T08:30:34.195Z,63.39
2018-03-30T08:33:01.663Z,63.54
2018-03-30T08:35:30.071Z,64.12
2018-03-30T08:37:57.698Z,64.08
2018-03-30T08:40:25.286Z,63.82
2018-03-30T08:42:52.769Z,63.70
2018-03-30T08:45:20.345Z,63.59
2018-03-30T08:47:48.169Z,63.25
2018-03-30T08:50:15.692Z,63.63
2018-03-30T08:52:43.263Z,64.11
2018-03-30T08:55:10.779Z,64.36
2018-03-30T08:57:38.293Z,64.70
2018-03-30T09:00:05.787Z,64.07
2018-03-30T09:02:33.297Z,63.39
2018-03-30T09:05:00.922Z,61.54
2018-03-30T09:07:28.467Z,60.93
2018-03-30T09:09:56.262Z,61.31
2018-03-30T09:12:23.814Z,60.66
2018-03-30T09:14:52.787Z,60.14
2018-03-30T09:17:21.143Z,59.17
2018-03-30T09:19:51.078Z,59.11
2018-03-30T09:22:18.735Z,58.42
2018-03-30T09:24:46.257Z,57.87
2018-03-30T09:27:14.255Z,56.55
2018-03-30T09:29:47.461Z,55.87
2018-03-30T09:32:14.939Z,55.92
2018-03-30T09:34:42.424Z,56.14
2018-03-30T09:37:10.033Z,55.81
2018-03-30T09:39:39.851Z,54.92
2018-03-30T09:42:07.893Z,53.81
2018-03-30T09:44:36.582Z,52.61
2018-03-30T09:47:04.394Z,52.10
2018-03-30T09:49:32.764Z,50.22
2018-03-30T09:52:01.107Z,48.16
2018-03-30T09:54:28.589Z,48.25
2018-03-30T09:56:57.856Z,46.26
2018-03-30T09:59:25.550Z,46.59
2018-03-30T10:01:53.175Z,44.96
2018-03-30T10:04:23.868Z,44.83
2018-03-30T10:06:51.324Z,44.26
2018-03-30T10:09:18.962Z,43.82
2018-03-30T10:11:46.488Z,43.36
2018-03-30T10:14:13.943Z,41.45
2018-03-30T10:16:43.271Z,41.25
2018-03-30T10:19:11.060Z,40.81
2018-03-30T10:21:38.720Z,40.27
2018-03-30T10:24:06.782Z,38.90
2018-03-30T10:26:35.018Z,38.33
2018-03-30T10:29:02.484Z,38.10
2018-03-30T10:31:29.932Z,37.42
2018-03-30T10:33:57.493Z,37.34
2018-03-30T10:36:25.061Z,37.28
2018-03-30T10:38:52.536Z,35.82
2018-03-30T10:41:20.064Z,35.22
2018-03-30T10:43:49.654Z,34.49
2018-03-30T10:46:17.138Z,32.37
2018-03-30T10:48:44.661Z,30.83
2018-03-30T10:51:12.175Z,30.02
2018-03-30T10:53:54.066Z,29.82
2018-03-30T10:56:21.547Z,29.32
2018-03-30T10:58:49.012Z,30.12
2018-03-30T11:01:17.366Z,27.70
2018-03-30T11:03:44.908Z,26.63
2018-03-30T11:06:12.434Z,27.67
2018-03-30T11:08:40.016Z,26.54
2018-03-30T11:11:07.457Z,26.92
2018-03-30T11:16:37.524Z,30.76
2018-03-30T11:19:04.986Z,32.40
2018-03-30T11:21:32.452Z,33.74
2018-03-30T11:24:14.119Z,34.86
2018-03-30T11:26:41.688Z,35.88
2018-03-30T11:29:09.211Z,35.40
2018-03-30T11:31:36.710Z,35.85
2018-03-30T11:34:04.186Z,35.44
2018-03-30T11:36:31.680Z,34.76
2018-03-30T11:38:59.228Z,32.38
2018-03-30T11:41:26.726Z,30.95
2018-03-30T11:43:54.188Z,28.66
2018-03-30T11:46:22.874Z,28.65
2018-03-30T11:48:50.386Z,29.03
2018-03-30T11:51:17.899Z,29.52
2018-03-30T11:53:45.370Z,29.63
2018-03-30T11:56:12.855Z,29.97
2018-03-30T11:58:41.146Z,30.30
2018-03-30T12:01:08.604Z,30.65
2018-03-30T12:03:41.007Z,32.13
2018-03-30T12:06:08.526Z,34.52
2018-03-30T12:08:35.971Z,35.63
2018-03-30T12:11:03.524Z,37.43
2018-03-30T12:13:45.185Z,38.81
2018-03-30T12:16:15.284Z,39.71
2018-03-30T12:18:42.782Z,39.85
2018-03-30T12:21:10.300Z,40.02
2018-03-30T12:23:42.738Z,40.63
2018-03-30T12:26:10.242Z,40.65
2018-03-30T12:28:37.712Z,40.41
2018-03-30T12:31:05.983Z,40.52
2018-03-30T12:33:33.804Z,38.76
2018-03-30T12:36:01.989Z,37.35
2018-03-30T12:38:30.431Z,36.37
2018-03-30T12:40:58.005Z,35.71
2018-03-30T12:43:25.476Z,34.69
2018-03-30T12:45:52.981Z,34.47
2018-03-30T12:48:21.390Z,33.71
2018-03-30T12:50:49.378Z,32.77
2018-03-30T12:53:31.120Z,31.72
2018-03-30T12:55:58.649Z,30.60
2018-03-30T12:58:26.275Z,30.26
2018-03-30T13:00:53.720Z,30.62
2018-03-30T13:03:22.154Z,31.06
2018-03-30T13:05:49.707Z,31.51
2018-03-30T13:08:17.370Z,31.61
2018-03-30T13:10:44.873Z,34.44
2018-03-30T13:13:12.417Z,34.04
2018-03-30T13:15:39.903Z,35.58
2018-03-30T13:18:07.357Z,35.95
2018-03-30T13:20:34.860Z,35.42
2018-03-30T13:23:02.339Z,36.52
2018-03-30T13:25:29.829Z,36.22
2018-03-30T13:27:57.393Z,35.70
2018-03-30T13:30:24.959Z,36.31
2018-03-30T13:32:52.453Z,36.65
2018-03-30T13:35:19.941Z,36.56
2018-03-30T13:37:47.423Z,35.73
2018-03-30T13:40:16.924Z,35.98
2018-03-30T13:42:44.374Z,36.08
2018-03-30T13:45:11.883Z,36.08
2018-03-30T13:47:39.369Z,34.92
2018-03-30T13:50:06.843Z,34.20
2018-03-30T13:55:32.890Z,34.39
2018-03-30T13:58:16.197Z,35.04
2018-03-30T14:00:43.693Z,34.95
2018-03-30T14:03:26.492Z,34.64
2018-03-30T14:06:04.552Z,35.14
2018-03-30T14:08:36.719Z,34.84
2018-03-30T14:11:09.653Z,34.01
2018-03-30T14:13:37.105Z,33.01
2018-03-30T14:16:09.230Z,33.00
2018-03-30T14:18:56.273Z,32.11
2018-03-30T14:21:25.304Z,31.84
2018-03-30T14:23:53.791Z,31.87
2018-03-30T14:26:21.933Z,32.05
2018-03-30T14:28:51.240Z,31.98
2018-03-30T14:31:35.652Z,33.24
2018-03-30T14:34:04.102Z,37.33
2018-03-30T14:36:41.523Z,34.81
2018-03-30T14:39:14.717Z,36.53
2018-03-30T14:41:42.240Z,35.81
2018-03-30T14:47:17.332Z,34.05
2018-03-30T14:49:45.697Z,33.71
2018-03-30T14:52:21.974Z,34.24
2018-03-30T14:55:05.963Z,34.37
2018-03-30T14:57:42.663Z,34.10
2018-03-30T15:00:15.795Z,33.96
2018-03-30T15:03:02.527Z,33.96
2018-03-30T15:05:35.705Z,34.14
2018-03-30T15:08:12.423Z,34.43
2018-03-30T15:10:51.564Z,34.10
2018-03-30T15:13:22.689Z,34.02
2018-03-30T15:16:13.245Z,33.53
2018-03-30T15:18:42.492Z,32.94
2018-03-30T15:21:25.597Z,33.11
2018-03-30T15:24:07.389Z,33.13
2018-03-30T15:26:35.521Z,33.37
2018-03-30T15:29:05.533Z,33.48
2018-03-30T15:31:43.605Z,34.66
2018-03-30T15:34:17.805Z,35.42
2018-03-30T15:36:54.735Z,35.95
2018-03-30T15:39:28.054Z,36.29
2018-03-30T15:41:55.590Z,36.32
2018-03-30T15:44:23.805Z,36.75
2018-03-30T15:46:54.396Z,36.99
2018-03-30T15:49:23.541Z,36.92
2018-03-30T15:51:52.017Z,37.16
2018-03-30T15:54:18.984Z,37.03
2018-03-30T15:56:46.499Z,37.24
2018-03-30T15:59:13.983Z,37.85
2018-03-30T16:01:41.559Z,37.91
2018-03-30T16:04:09.155Z,38.21
2018-03-30T16:06:36.723Z,38.53
2018-03-30T16:09:07.670Z,38.55
2018-03-30T16:11:38.767Z,38.66
2018-03-30T16:14:07.289Z,38.74
2018-03-30T16:16:34.889Z,39.25
2018-03-30T16:19:02.210Z,39.49
2018-03-30T16:21:29.255Z,39.17
2018-03-30T16:23:56.240Z,39.53
2018-03-30T16:26:23.246Z,39.47
2018-03-30T16:28:50.427Z,39.19
2018-03-30T16:31:17.415Z,39.15
2018-03-30T16:33:44.743Z,39.51
2018-03-30T16:36:11.970Z,39.87
2018-03-30T16:38:39.467Z,39.85
2018-03-30T16:41:06.389Z,40.02
2018-03-30T16:43:33.363Z,40.34
2018-03-30T16:46:01.164Z,40.83
2018-03-30T16:48:28.071Z,40.74
2018-03-30T16:50:55.019Z,41.03
2018-03-30T16:53:41.675Z,41.08
2018-03-30T16:56:09.114Z,41.16
2018-03-30T16:58:36.321Z,41.07
2018-03-30T17:01:03.276Z,41.39
2018-03-30T17:03:30.351Z,41.53
2018-03-30T17:05:57.253Z,41.71
2018-03-30T17:08:24.221Z,42.02
2018-03-30T17:10:51.209Z,42.08
2018-03-30T17:13:24.609Z,42.02
2018-03-30T17:15:51.685Z,42.04
2018-03-30T17:18:18.638Z,42.36
2018-03-30T17:20:45.555Z,42.64
2018-03-30T17:23:12.487Z,42.98
2018-03-30T17:25:39.421Z,43.04
2018-03-30T17:28:06.429Z,43.34
2018-03-30T17:30:33.870Z,43.53
2018-03-30T17:33:00.819Z,43.63
2018-03-30T17:35:27.884Z,43.82
2018-03-30T17:37:54.803Z,44.04
2018-03-30T17:40:21.845Z,44.16
2018-03-30T17:42:48.705Z,44.48
2018-03-30T17:45:15.661Z,44.42
2018-03-30T17:47:43.558Z,44.61
2018-03-30T17:50:10.464Z,44.67
2018-03-30T17:52:38.281Z,44.51
2018-03-30T17:55:05.299Z,44.53
2018-03-30T17:57:32.221Z,44.71
2018-03-30T17:59:59.413Z,44.74
2018-03-30T18:02:26.469Z,44.72
2018-03-30T18:04:53.451Z,44.88
2018-03-30T18:07:20.427Z,44.64
2018-03-30T18:09:47.359Z,44.63
2018-03-30T18:12:14.290Z,44.72
2018-03-30T18:14:41.273Z,44.91
2018-03-30T18:17:08.215Z,44.72
2018-03-30T18:19:35.269Z,45.05
2018-03-30T18:22:02.202Z,44.81
2018-03-30T18:24:29.192Z,45.13
2018-03-30T18:26:56.124Z,45.04
2018-03-30T18:29:23.117Z,45.23
2018-03-30T18:31:50.126Z,45.43
2018-03-30T18:34:17.126Z,45.62
2018-03-30T18:36:44.049Z,45.84
2018-03-30T18:39:11.117Z,45.73
2018-03-30T18:41:38.200Z,46.09
2018-03-30T18:44:06.267Z,45.92
2018-03-30T18:46:33.225Z,46.13
2018-03-30T18:49:00.162Z,46.07
2018-03-30T18:51:27.108Z,46.23
2018-03-30T18:53:54.397Z,46.18
2018-03-30T18:56:21.381Z,46.12
2018-03-30T18:58:49.280Z,46.29
2018-03-30T19:01:16.232Z,46.30
2018-03-30T19:03:43.230Z,46.33
2018-03-30T19:06:10.266Z,46.26
2018-03-30T19:08:37.409Z,46.30
2018-03-30T19:11:04.491Z,46.36
2018-03-30T19:13:31.498Z,46.41
2018-03-30T19:15:58.726Z,46.09
2018-03-30T19:18:25.689Z,46.27
2018-03-30T19:20:52.849Z,46.13
2018-03-30T19:23:19.853Z,46.30
2018-03-30T19:25:46.810Z,46.38
2018-03-30T19:28:13.773Z,46.43
2018-03-30T19:30:40.849Z,46.52
2018-03-30T19:33:07.844Z,46.55
2018-03-30T19:35:34.994Z,46.45
2018-03-30T19:38:01.972Z,46.61
2018-03-30T19:40:29.840Z,46.56
2018-03-30T19:48:52.249Z,46.70
2018-03-30T19:51:19.161Z,46.90
2018-03-30T19:57:03.551Z,46.85
2018-03-30T19:59:30.541Z,46.87
2018-03-30T20:01:57.707Z,47.04
2018-03-30T20:04:24.713Z,46.98
2018-03-30T20:06:51.657Z,47.23
2018-03-30T20:09:18.814Z,49.45
2018-03-30T20:11:45.734Z,47.85
2018-03-30T20:14:12.815Z,47.49
2018-03-30T20:16:39.849Z,47.58
2018-03-30T20:19:06.794Z,47.77
2018-03-30T20:21:33.989Z,47.78
2018-03-30T20:24:01.038Z,47.91
2018-03-30T20:26:28.010Z,48.12
2018-03-30T20:28:55.045Z,48.22
2018-03-30T20:31:22.027Z,48.21
2018-03-30T20:33:49.023Z,48.18
2018-03-30T20:36:16.008Z,48.20
2018-03-30T20:38:42.970Z,48.42
2018-03-30T20:41:10.025Z,48.45
2018-03-30T20:43:37.838Z,48.38
2018-03-30T20:46:05.278Z,48.13
2018-03-30T20:48:32.971Z,47.95
2018-03-30T20:51:00.913Z,47.96
2018-03-30T20:53:28.224Z,48.14
2018-03-30T20:55:55.151Z,48.13
2018-03-30T20:58:22.274Z,48.36
2018-03-30T21:00:49.307Z,48.32
2018-03-30T21:06:09.468Z,48.42
2018-03-30T21:08:36.573Z,48.50
2018-03-30T21:11:03.496Z,48.64
2018-03-30T21:13:30.424Z,49.13
2018-03-30T21:15:57.414Z,49.54
2018-03-30T21:18:24.668Z,49.43
2018-03-30T21:20:52.428Z,49.59
2018-03-30T21:23:19.453Z,49.75
2018-03-30T21:25:46.379Z,50.02
2018-03-30T21:28:13.406Z,50.21
2018-03-30T21:30:40.589Z,50.51
2018-03-30T21:33:07.542Z,50.71
2018-03-30T21:35:34.470Z,50.69
2018-03-30T21:38:01.730Z,50.82
2018-03-30T21:40:28.622Z,50.95
2018-03-30T21:43:01.198Z,50.86
2018-03-30T21:45:28.422Z,50.86
2018-03-30T21:47:55.411Z,51.09
2018-03-30T21:50:22.371Z,51.16
2018-03-30T21:52:49.308Z,51.29
2018-03-30T21:55:16.238Z,51.41
2018-03-30T21:57:43.132Z,51.68
2018-03-30T22:00:10.069Z,51.65
2018-03-30T22:02:37.012Z,51.67
2018-03-30T22:05:03.971Z,51.75
2018-03-30T22:07:30.913Z,51.82
2018-03-30T22:09:57.870Z,52.03
2018-03-30T22:12:24.998Z,52.22
2018-03-30T22:14:51.979Z,52.30
2018-03-30T22:17:18.976Z,52.42
2018-03-30T22:19:45.950Z,52.71
2018-03-30T22:22:13.040Z,52.78
2018-03-30T22:24:39.965Z,52.81
2018-03-30T22:27:06.908Z,52.88
2018-03-30T22:29:33.959Z,53.16
2018-03-30T22:32:01.110Z,52.99
2018-03-30T22:34:28.045Z,53.04
2018-03-30T22:36:54.973Z,53.21
2018-03-30T22:39:21.882Z,53.45
2018-03-30T22:41:48.797Z,53.51
2018-03-30T22:44:15.729Z,53.58
2018-03-30T22:46:42.907Z,53.80
2018-03-30T22:49:09.802Z,53.90
2018-03-30T22:51:36.783Z,54.19
2018-03-30T22:54:03.704Z,54.12
2018-03-30T22:56:30.625Z,54.44
2018-03-30T22:58:57.542Z,54.38
2018-03-30T23:01:25.353Z,54.42
2018-03-30T23:03:52.285Z,54.65
2018-03-30T23:06:19.168Z,54.78
2018-03-30T23:08:46.123Z,55.03
2018-03-30T23:11:13.107Z,55.01
2018-03-30T23:13:40.001Z,55.15
2018-03-30T23:16:06.955Z,55.46
2018-03-30T23:18:33.897Z,55.41
2018-03-30T23:21:00.838Z,55.49
2018-03-30T23:23:27.729Z,55.71
2018-03-30T23:25:55.447Z,55.75
2018-03-30T23:28:22.362Z,55.72
2018-03-30T23:30:49.321Z,55.85
2018-03-30T23:33:16.231Z,56.10
2018-03-30T23:35:43.373Z,56.29
2018-03-30T23:38:11.059Z,56.16
2018-03-30T23:40:38.207Z,56.36
2018-03-30T23:43:05.081Z,56.45
2018-03-30T23:45:32.003Z,56.44
2018-03-30T23:47:58.943Z,56.45
2018-03-30T23:50:26.093Z,56.55
2018-03-30T23:53:17.218Z,56.91
2018-03-30T23:55:44.150Z,56.92
2018-03-30T23:58:11.105Z,56.76
